Terminal Aerodrome Forecast
Issued by NWS

Home | Current Version | Previous Version | Text Only | Print | Product List | Glossary On
Versions: 1 2 3 4 5 6 7 8 9 10 11 12 13 14 15
000
FTUS42 KMLB 231518 AAB
TAFTIX
TAF AMD
KTIX 231518Z 2315/2412 07012KT P6SM VCSH SCT020 BKN030
      TEMPO 2315/2317 5SM SHRA BKN020 OVC030
     FM231700 06017G26KT P6SM BKN035
     FM240000 06013KT P6SM SCT035
     FM240300 07010KT P6SM SCT030=

USA.gov is the U.S. government's official web portal to all federal, state and local government web resources and services.